sensor_id;sensor_type;location;lat;lon;timestamp;pressure;altitude;pressure_sealevel;temperature;humidity
51468;BME280;37545;45.302;-122.946;2022-09-09T00:01:25;101000.66;;;30.55;17.66
51468;BME280;37545;45.302;-122.946;2022-09-09T00:04:01;100996.75;;;30.45;16.66
51468;BME280;37545;45.302;-122.946;2022-09-09T00:06:32;101003.41;;;30.36;16.63
51468;BME280;37545;45.302;-122.946;2022-09-09T00:09:08;101004.72;;;30.27;17.36
51468;BME280;37545;45.302;-122.946;2022-09-09T00:11:46;100997.75;;;30.23;17.83
51468;BME280;37545;45.302;-122.946;2022-09-09T00:14:21;100995.88;;;30.25;17.41
51468;BME280;37545;45.302;-122.946;2022-09-09T00:16:54;100994.38;;;30.20;17.71
51468;BME280;37545;45.302;-122.946;2022-09-09T00:19:26;100990.06;;;30.17;17.36
51468;BME280;37545;45.302;-122.946;2022-09-09T00:22:08;100982.50;;;30.08;18.21
51468;BME280;37545;45.302;-122.946;2022-09-09T00:24:44;100991.75;;;30.01;17.23
51468;BME280;37545;45.302;-122.946;2022-09-09T00:27:23;100981.66;;;29.89;17.24
51468;BME280;37545;45.302;-122.946;2022-09-09T00:29:58;100977.31;;;29.86;17.63
51468;BME280;37545;45.302;-122.946;2022-09-09T00:32:30;100981.81;;;29.85;18.89
51468;BME280;37545;45.302;-122.946;2022-09-09T00:35:09;100975.63;;;29.85;18.15
51468;BME280;37545;45.302;-122.946;2022-09-09T00:37:45;100973.00;;;29.83;19.90
51468;BME280;37545;45.302;-122.946;2022-09-09T00:40:22;100971.41;;;29.79;19.22
51468;BME280;37545;45.302;-122.946;2022-09-09T00:43:09;100968.09;;;29.74;18.42
51468;BME280;37545;45.302;-122.946;2022-09-09T00:46:03;100972.88;;;29.68;18.45
51468;BME280;37545;45.302;-122.946;2022-09-09T00:48:41;100969.53;;;29.62;19.14
51468;BME280;37545;45.302;-122.946;2022-09-09T00:51:24;100965.63;;;29.51;19.43
51468;BME280;37545;45.302;-122.946;2022-09-09T00:54:06;100965.16;;;29.41;19.74
51468;BME280;37545;45.302;-122.946;2022-09-09T00:56:43;100967.13;;;29.37;19.18
51468;BME280;37545;45.302;-122.946;2022-09-09T00:59:24;100967.19;;;29.36;18.81
51468;BME280;37545;45.302;-122.946;2022-09-09T01:01:57;100963.88;;;29.31;19.82
51468;BME280;37545;45.302;-122.946;2022-09-09T01:04:34;100973.94;;;29.24;20.10
51468;BME280;37545;45.302;-122.946;2022-09-09T01:07:10;100965.50;;;29.14;19.48
51468;BME280;37545;45.302;-122.946;2022-09-09T01:09:52;100953.56;;;29.02;18.43
51468;BME280;37545;45.302;-122.946;2022-09-09T01:12:28;100948.75;;;28.90;18.78
51468;BME280;37545;45.302;-122.946;2022-09-09T01:15:09;100951.09;;;28.77;18.29
51468;BME280;37545;45.302;-122.946;2022-09-09T01:17:49;100950.69;;;28.66;18.50
51468;BME280;37545;45.302;-122.946;2022-09-09T01:20:23;100948.50;;;28.55;18.30
51468;BME280;37545;45.302;-122.946;2022-09-09T01:26:05;100949.38;;;28.34;18.85
51468;BME280;37545;45.302;-122.946;2022-09-09T01:28:37;100953.31;;;28.24;18.86
51468;BME280;37545;45.302;-122.946;2022-09-09T01:31:09;100951.19;;;28.11;18.93
51468;BME280;37545;45.302;-122.946;2022-09-09T01:33:39;100950.75;;;28.00;19.61
51468;BME280;37545;45.302;-122.946;2022-09-09T01:36:10;100949.25;;;27.93;19.66
51468;BME280;37545;45.302;-122.946;2022-09-09T01:38:41;100948.69;;;27.85;20.39
51468;BME280;37545;45.302;-122.946;2022-09-09T01:41:11;100949.94;;;27.74;20.09
51468;BME280;37545;45.302;-122.946;2022-09-09T01:43:40;100949.50;;;27.63;21.04
51468;BME280;37545;45.302;-122.946;2022-09-09T01:46:08;100952.59;;;27.51;20.86
51468;BME280;37545;45.302;-122.946;2022-09-09T01:48:39;100933.03;;;27.30;21.42
51468;BME280;37545;45.302;-122.946;2022-09-09T01:51:09;100943.00;;;27.23;21.54
51468;BME280;37545;45.302;-122.946;2022-09-09T01:53:39;100949.69;;;27.10;21.45
51468;BME280;37545;45.302;-122.946;2022-09-09T01:56:19;100945.56;;;27.01;22.17
51468;BME280;37545;45.302;-122.946;2022-09-09T01:59:01;100942.47;;;26.88;22.50
51468;BME280;37545;45.302;-122.946;2022-09-09T02:01:41;100950.91;;;26.74;23.45
51468;BME280;37545;45.302;-122.946;2022-09-09T02:04:23;100942.47;;;26.63;23.44
51468;BME280;37545;45.302;-122.946;2022-09-09T02:06:56;100946.28;;;26.54;23.89
51468;BME280;37545;45.302;-122.946;2022-09-09T02:09:26;100944.03;;;26.42;23.86
51468;BME280;37545;45.302;-122.946;2022-09-09T02:12:04;100951.56;;;26.28;24.03
51468;BME280;37545;45.302;-122.946;2022-09-09T02:14:38;100944.97;;;26.13;23.95
51468;BME280;37545;45.302;-122.946;2022-09-09T02:17:10;100947.91;;;26.04;24.81
51468;BME280;37545;45.302;-122.946;2022-09-09T02:19:44;100943.88;;;25.92;24.93
51468;BME280;37545;45.302;-122.946;2022-09-09T02:22:16;100936.41;;;25.75;24.56
51468;BME280;37545;45.302;-122.946;2022-09-09T02:24:46;100942.88;;;25.66;24.82
51468;BME280;37545;45.302;-122.946;2022-09-09T02:27:18;100934.53;;;25.49;25.36
51468;BME280;37545;45.302;-122.946;2022-09-09T02:29:50;100937.72;;;25.31;26.05
51468;BME280;37545;45.302;-122.946;2022-09-09T02:32:22;100942.44;;;25.21;26.52
51468;BME280;37545;45.302;-122.946;2022-09-09T02:34:54;100939.22;;;25.08;26.45
51468;BME280;37545;45.302;-122.946;2022-09-09T02:37:26;100936.06;;;24.94;26.63
51468;BME280;37545;45.302;-122.946;2022-09-09T02:39:58;100943.53;;;24.79;26.77
51468;BME280;37545;45.302;-122.946;2022-09-09T02:42:28;100927.16;;;24.65;26.83
51468;BME280;37545;45.302;-122.946;2022-09-09T02:44:56;100932.75;;;24.53;28.56
51468;BME280;37545;45.302;-122.946;2022-09-09T02:47:30;100939.06;;;24.45;27.75
51468;BME280;37545;45.302;-122.946;2022-09-09T02:50:11;100934.00;;;24.36;27.85
51468;BME280;37545;45.302;-122.946;2022-09-09T02:52:51;100936.03;;;24.25;27.96
51468;BME280;37545;45.302;-122.946;2022-09-09T02:55:32;100932.84;;;24.12;28.45
51468;BME280;37545;45.302;-122.946;2022-09-09T02:58:06;100934.81;;;24.02;28.56
51468;BME280;37545;45.302;-122.946;2022-09-09T03:00:38;100934.19;;;23.91;28.65
51468;BME280;37545;45.302;-122.946;2022-09-09T03:03:07;100933.53;;;23.81;30.54
51468;BME280;37545;45.302;-122.946;2022-09-09T03:05:37;100928.53;;;23.68;30.76
51468;BME280;37545;45.302;-122.946;2022-09-09T03:08:06;100927.94;;;23.55;30.84
51468;BME280;37545;45.302;-122.946;2022-09-09T03:10:34;100929.03;;;23.45;29.94
51468;BME280;37545;45.302;-122.946;2022-09-09T03:13:05;100933.59;;;23.36;30.00
51468;BME280;37545;45.302;-122.946;2022-09-09T03:15:34;100939.06;;;23.27;30.10
51468;BME280;37545;45.302;-122.946;2022-09-09T03:18:03;100938.38;;;23.17;29.80
51468;BME280;37545;45.302;-122.946;2022-09-09T03:20:32;100936.75;;;23.10;29.64
51468;BME280;37545;45.302;-122.946;2022-09-09T03:23:01;100932.53;;;23.02;30.95
51468;BME280;37545;45.302;-122.946;2022-09-09T03:25:30;100940.56;;;22.94;32.42
51468;BME280;37545;45.302;-122.946;2022-09-09T03:28:00;100938.09;;;22.86;31.64
51468;BME280;37545;45.302;-122.946;2022-09-09T03:30:30;100946.00;;;22.85;30.96
51468;BME280;37545;45.302;-122.946;2022-09-09T03:32:59;100944.31;;;22.80;31.28
51468;BME280;37545;45.302;-122.946;2022-09-09T03:35:27;100941.75;;;22.77;31.18
51468;BME280;37545;45.302;-122.946;2022-09-09T03:37:56;100935.69;;;22.72;30.40
51468;BME280;37545;45.302;-122.946;2022-09-09T03:40:25;100931.38;;;22.68;30.80
51468;BME280;37545;45.302;-122.946;2022-09-09T03:42:53;100937.53;;;22.67;30.69
51468;BME280;37545;45.302;-122.946;2022-09-09T03:45:22;100940.22;;;22.66;31.50
51468;BME280;37545;45.302;-122.946;2022-09-09T03:47:52;100934.03;;;22.65;31.36
51468;BME280;37545;45.302;-122.946;2022-09-09T03:50:21;100945.50;;;22.64;31.82
51468;BME280;37545;45.302;-122.946;2022-09-09T03:52:50;100941.16;;;22.60;32.11
51468;BME280;37545;45.302;-122.946;2022-09-09T03:55:19;100934.16;;;22.59;32.24
51468;BME280;37545;45.302;-122.946;2022-09-09T03:57:47;100933.28;;;22.58;32.75
51468;BME280;37545;45.302;-122.946;2022-09-09T04:00:16;100953.50;;;22.58;32.71
51468;BME280;37545;45.302;-122.946;2022-09-09T04:02:45;100950.91;;;22.56;34.48
51468;BME280;37545;45.302;-122.946;2022-09-09T04:05:15;100947.47;;;22.51;33.61
51468;BME280;37545;45.302;-122.946;2022-09-09T04:07:44;100946.66;;;22.48;33.89
51468;BME280;37545;45.302;-122.946;2022-09-09T04:10:12;100941.41;;;22.45;34.23
51468;BME280;37545;45.302;-122.946;2022-09-09T04:12:42;100941.47;;;22.42;34.65
51468;BME280;37545;45.302;-122.946;2022-09-09T04:15:10;100945.97;;;22.36;34.53
51468;BME280;37545;45.302;-122.946;2022-09-09T04:17:39;100936.44;;;22.26;34.67
51468;BME280;37545;45.302;-122.946;2022-09-09T04:20:08;100933.06;;;22.15;34.89
51468;BME280;37545;45.302;-122.946;2022-09-09T04:22:39;100939.41;;;22.03;35.23
51468;BME280;37545;45.302;-122.946;2022-09-09T04:25:08;100943.06;;;21.94;34.90
51468;BME280;37545;45.302;-122.946;2022-09-09T04:27:37;100944.03;;;21.87;36.06
51468;BME280;37545;45.302;-122.946;2022-09-09T04:30:06;100951.19;;;21.79;35.88
51468;BME280;37545;45.302;-122.946;2022-09-09T04:32:35;100942.50;;;21.71;35.84
51468;BME280;37545;45.302;-122.946;2022-09-09T04:35:04;100945.19;;;21.66;36.11
51468;BME280;37545;45.302;-122.946;2022-09-09T04:37:33;100944.38;;;21.63;37.03
51468;BME280;37545;45.302;-122.946;2022-09-09T04:40:04;100937.41;;;21.59;37.37
51468;BME280;37545;45.302;-122.946;2022-09-09T04:42:35;100946.28;;;21.51;37.44
51468;BME280;37545;45.302;-122.946;2022-09-09T04:45:05;100941.03;;;21.50;37.79
51468;BME280;37545;45.302;-122.946;2022-09-09T04:47:37;100928.72;;;21.50;37.54
51468;BME280;37545;45.302;-122.946;2022-09-09T04:50:07;100934.00;;;21.50;38.49
51468;BME280;37545;45.302;-122.946;2022-09-09T04:52:36;100938.38;;;21.51;39.08
51468;BME280;37545;45.302;-122.946;2022-09-09T04:55:07;100932.31;;;21.45;37.67
51468;BME280;37545;45.302;-122.946;2022-09-09T04:57:36;100935.84;;;21.39;37.82
51468;BME280;37545;45.302;-122.946;2022-09-09T05:00:06;100925.41;;;21.33;37.67
51468;BME280;37545;45.302;-122.946;2022-09-09T05:02:37;100921.97;;;21.26;38.04
51468;BME280;37545;45.302;-122.946;2022-09-09T05:05:07;100915.09;;;21.15;38.15
51468;BME280;37545;45.302;-122.946;2022-09-09T05:07:37;100920.44;;;21.08;37.88
51468;BME280;37545;45.302;-122.946;2022-09-09T05:10:08;100915.28;;;20.99;38.05
51468;BME280;37545;45.302;-122.946;2022-09-09T05:12:37;100910.94;;;20.93;38.25
51468;BME280;37545;45.302;-122.946;2022-09-09T05:15:06;100911.03;;;20.86;37.75
51468;BME280;37545;45.302;-122.946;2022-09-09T05:17:35;100918.09;;;20.81;38.14
51468;BME280;37545;45.302;-122.946;2022-09-09T05:20:05;100918.16;;;20.75;38.21
51468;BME280;37545;45.302;-122.946;2022-09-09T05:22:34;100912.97;;;20.68;38.00
51468;BME280;37545;45.302;-122.946;2022-09-09T05:25:02;100904.25;;;20.63;38.01
51468;BME280;37545;45.302;-122.946;2022-09-09T05:27:33;100902.56;;;20.58;38.14
51468;BME280;37545;45.302;-122.946;2022-09-09T05:30:02;100910.44;;;20.53;38.16
51468;BME280;37545;45.302;-122.946;2022-09-09T05:32:31;100903.47;;;20.49;38.61
51468;BME280;37545;45.302;-122.946;2022-09-09T05:35:00;100906.13;;;20.44;38.39
51468;BME280;37545;45.302;-122.946;2022-09-09T05:37:30;100903.50;;;20.43;38.55
51468;BME280;37545;45.302;-122.946;2022-09-09T05:39:59;100895.69;;;20.37;39.44
51468;BME280;37545;45.302;-122.946;2022-09-09T05:42:32;100902.75;;;20.30;39.16
51468;BME280;37545;45.302;-122.946;2022-09-09T05:45:00;100894.94;;;20.22;39.24
51468;BME280;37545;45.302;-122.946;2022-09-09T05:47:29;100897.59;;;20.18;39.05
51468;BME280;37545;45.302;-122.946;2022-09-09T05:49:57;100887.97;;;20.15;38.36
51468;BME280;37545;45.302;-122.946;2022-09-09T05:52:26;100893.25;;;20.12;38.95
51468;BME280;37545;45.302;-122.946;2022-09-09T05:54:55;100890.69;;;20.07;38.57
51468;BME280;37545;45.302;-122.946;2022-09-09T05:57:23;100885.41;;;20.06;38.70
51468;BME280;37545;45.302;-122.946;2022-09-09T05:59:53;100884.56;;;20.04;38.69
51468;BME280;37545;45.302;-122.946;2022-09-09T06:02:22;100886.31;;;20.02;38.57
51468;BME280;37545;45.302;-122.946;2022-09-09T06:04:51;100884.59;;;19.99;38.61
51468;BME280;37545;45.302;-122.946;2022-09-09T06:07:19;100877.66;;;19.95;39.21
51468;BME280;37545;45.302;-122.946;2022-09-09T06:09:48;100881.13;;;19.93;38.92
51468;BME280;37545;45.302;-122.946;2022-09-09T06:12:18;100875.06;;;19.91;39.37
51468;BME280;37545;45.302;-122.946;2022-09-09T06:14:47;100881.16;;;19.88;38.97
51468;BME280;37545;45.302;-122.946;2022-09-09T06:17:18;100873.31;;;19.85;38.69
51468;BME280;37545;45.302;-122.946;2022-09-09T06:19:47;100867.28;;;19.75;38.38
51468;BME280;37545;45.302;-122.946;2022-09-09T06:22:16;100867.25;;;19.78;38.48
51468;BME280;37545;45.302;-122.946;2022-09-09T06:24:44;100862.88;;;19.76;38.46
51468;BME280;37545;45.302;-122.946;2022-09-09T06:27:13;100868.16;;;19.73;38.85
51468;BME280;37545;45.302;-122.946;2022-09-09T06:29:41;100862.03;;;19.69;39.57
51468;BME280;37545;45.302;-122.946;2022-09-09T06:32:10;100855.94;;;19.65;40.05
51468;BME280;37545;45.302;-122.946;2022-09-09T06:34:40;100852.44;;;19.62;40.04
51468;BME280;37545;45.302;-122.946;2022-09-09T06:37:09;100858.59;;;19.58;38.91
51468;BME280;37545;45.302;-122.946;2022-09-09T06:39:37;100857.75;;;19.53;39.51
51468;BME280;37545;45.302;-122.946;2022-09-09T06:42:07;100857.78;;;19.45;40.12
51468;BME280;37545;45.302;-122.946;2022-09-09T06:44:35;100862.19;;;19.38;40.07
51468;BME280;37545;45.302;-122.946;2022-09-09T06:47:04;100863.97;;;19.30;40.57
51468;BME280;37545;45.302;-122.946;2022-09-09T06:49:33;100857.88;;;19.23;41.96
51468;BME280;37545;45.302;-122.946;2022-09-09T06:52:03;100855.28;;;19.19;41.55
51468;BME280;37545;45.302;-122.946;2022-09-09T06:54:32;100856.16;;;19.15;41.26
51468;BME280;37545;45.302;-122.946;2022-09-09T06:57:03;100854.47;;;19.09;42.11
51468;BME280;37545;45.302;-122.946;2022-09-09T06:59:33;100858.81;;;19.05;42.37
51468;BME280;37545;45.302;-122.946;2022-09-09T07:02:02;100856.22;;;19.01;41.92
51468;BME280;37545;45.302;-122.946;2022-09-09T07:04:30;100855.34;;;19.00;41.46
51468;BME280;37545;45.302;-122.946;2022-09-09T07:06:59;100854.50;;;19.00;41.33
51468;BME280;37545;45.302;-122.946;2022-09-09T07:09:29;100843.13;;;18.99;40.83
51468;BME280;37545;45.302;-122.946;2022-09-09T07:11:58;100833.50;;;18.98;41.53
51468;BME280;37545;45.302;-122.946;2022-09-09T07:14:27;100843.13;;;18.98;41.18
51468;BME280;37545;45.302;-122.946;2022-09-09T07:16:55;100835.25;;;18.96;41.36
51468;BME280;37545;45.302;-122.946;2022-09-09T07:19:24;100826.53;;;18.94;42.13
51468;BME280;37545;45.302;-122.946;2022-09-09T07:21:53;100826.53;;;18.94;41.17
51468;BME280;37545;45.302;-122.946;2022-09-09T07:24:21;100829.16;;;18.94;41.83
51468;BME280;37545;45.302;-122.946;2022-09-09T07:26:52;100827.44;;;18.95;41.37
51468;BME280;37545;45.302;-122.946;2022-09-09T07:29:21;100830.91;;;18.95;41.57
51468;BME280;37545;45.302;-122.946;2022-09-09T07:31:50;100830.91;;;18.95;41.09
51468;BME280;37545;45.302;-122.946;2022-09-09T07:34:18;100823.91;;;18.94;41.14
51468;BME280;37545;45.302;-122.946;2022-09-09T07:36:54;100822.19;;;18.93;42.11
51468;BME280;37545;45.302;-122.946;2022-09-09T07:39:23;100818.69;;;18.91;41.70
51468;BME280;37545;45.302;-122.946;2022-09-09T07:41:54;100816.06;;;18.90;42.35
51468;BME280;37545;45.302;-122.946;2022-09-09T07:44:24;100822.19;;;18.89;41.64
51468;BME280;37545;45.302;-122.946;2022-09-09T07:46:53;100824.81;;;18.87;42.21
51468;BME280;37545;45.302;-122.946;2022-09-09T07:49:22;100820.47;;;18.86;42.31
51468;BME280;37545;45.302;-122.946;2022-09-09T07:51:50;100826.56;;;18.85;42.30
51468;BME280;37545;45.302;-122.946;2022-09-09T07:54:20;100824.84;;;18.79;41.85
51468;BME280;37545;45.302;-122.946;2022-09-09T07:56:50;100823.09;;;18.77;41.95
51468;BME280;37545;45.302;-122.946;2022-09-09T07:59:20;100816.97;;;18.75;42.40
51468;BME280;37545;45.302;-122.946;2022-09-09T08:01:51;100822.22;;;18.72;42.71
51468;BME280;37545;45.302;-122.946;2022-09-09T08:04:22;100818.72;;;18.68;42.65
51468;BME280;37545;45.302;-122.946;2022-09-09T08:06:53;100817.84;;;18.66;42.98
51468;BME280;37545;45.302;-122.946;2022-09-09T08:09:22;100809.13;;;18.66;42.51
51468;BME280;37545;45.302;-122.946;2022-09-09T08:11:52;100808.25;;;18.63;42.40
51468;BME280;37545;45.302;-122.946;2022-09-09T08:14:22;100808.28;;;18.60;41.75
51468;BME280;37545;45.302;-122.946;2022-09-09T08:16:51;100809.16;;;18.61;42.37
51468;BME280;37545;45.302;-122.946;2022-09-09T08:19:21;100801.28;;;18.62;42.18
51468;BME280;37545;45.302;-122.946;2022-09-09T08:21:49;100804.75;;;18.61;41.76
51468;BME280;37545;45.302;-122.946;2022-09-09T08:24:18;100796.91;;;18.61;42.09
51468;BME280;37545;45.302;-122.946;2022-09-09T08:26:53;100770.72;;;18.52;42.21
51468;BME280;37545;45.302;-122.946;2022-09-09T08:29:24;100780.31;;;18.59;42.23
51468;BME280;37545;45.302;-122.946;2022-09-09T08:31:56;100777.72;;;18.58;42.18
51468;BME280;37545;45.302;-122.946;2022-09-09T08:34:25;100778.56;;;18.57;42.55
51468;BME280;37545;45.302;-122.946;2022-09-09T08:36:54;100773.31;;;18.55;41.85
51468;BME280;37545;45.302;-122.946;2022-09-09T08:39:23;100768.97;;;18.53;41.85
51468;BME280;37545;45.302;-122.946;2022-09-09T08:42:13;100763.72;;;18.53;41.64
51468;BME280;37545;45.302;-122.946;2022-09-09T08:44:58;100767.25;;;18.52;41.91
51468;BME280;37545;45.302;-122.946;2022-09-09T08:47:35;100753.28;;;18.51;41.84
51468;BME280;37545;45.302;-122.946;2022-09-09T08:50:19;100757.63;;;18.52;41.49
51468;BME280;37545;45.302;-122.946;2022-09-09T08:52:58;100753.25;;;18.53;41.87
51468;BME280;37545;45.302;-122.946;2022-09-09T08:55:37;100755.88;;;18.53;41.66
51468;BME280;37545;45.302;-122.946;2022-09-09T08:58:12;100752.38;;;18.52;41.00
51468;BME280;37545;45.302;-122.946;2022-09-09T09:01:02;100748.00;;;18.53;41.20
51468;BME280;37545;45.302;-122.946;2022-09-09T09:03:40;100743.66;;;18.56;41.43
51468;BME280;37545;45.302;-122.946;2022-09-09T09:06:22;100735.78;;;18.56;41.11
51468;BME280;37545;45.302;-122.946;2022-09-09T09:08:58;100734.03;;;18.57;41.33
51468;BME280;37545;45.302;-122.946;2022-09-09T09:11:35;100734.91;;;18.57;41.51
51468;BME280;37545;45.302;-122.946;2022-09-09T09:14:09;100738.41;;;18.56;41.42
51468;BME280;37545;45.302;-122.946;2022-09-09T09:16:46;100731.41;;;18.58;41.24
51468;BME280;37545;45.302;-122.946;2022-09-09T09:19:17;100730.53;;;18.59;40.94
51468;BME280;37545;45.302;-122.946;2022-09-09T09:21:52;100734.00;;;18.61;40.90
51468;BME280;37545;45.302;-122.946;2022-09-09T09:24:27;100723.53;;;18.63;40.71
51468;BME280;37545;45.302;-122.946;2022-09-09T09:27:04;100728.78;;;18.63;40.96
51468;BME280;37545;45.302;-122.946;2022-09-09T09:29:40;100720.03;;;18.61;41.44
51468;BME280;37545;45.302;-122.946;2022-09-09T09:32:16;100718.28;;;18.61;41.61
51468;BME280;37545;45.302;-122.946;2022-09-09T09:34:49;100726.16;;;18.61;40.84
51468;BME280;37545;45.302;-122.946;2022-09-09T09:37:26;100720.94;;;18.60;41.24
51468;BME280;37545;45.302;-122.946;2022-09-09T09:39:55;100718.31;;;18.57;41.54
51468;BME280;37545;45.302;-122.946;2022-09-09T09:42:24;100705.19;;;18.55;41.48
51468;BME280;37545;45.302;-122.946;2022-09-09T09:44:53;100707.84;;;18.54;41.56
51468;BME280;37545;45.302;-122.946;2022-09-09T09:47:32;100700.84;;;18.53;41.20
51468;BME280;37545;45.302;-122.946;2022-09-09T09:50:01;100700.84;;;18.54;41.27
51468;BME280;37545;45.302;-122.946;2022-09-09T09:52:32;100694.75;;;18.54;41.09
51468;BME280;37545;45.302;-122.946;2022-09-09T09:55:04;100695.59;;;18.54;41.67
51468;BME280;37545;45.302;-122.946;2022-09-09T09:57:40;100692.97;;;18.53;41.21
51468;BME280;37545;45.302;-122.946;2022-09-09T10:00:14;100686.88;;;18.54;41.16
51468;BME280;37545;45.302;-122.946;2022-09-09T10:02:46;100686.00;;;18.56;41.49
51468;BME280;37545;45.302;-122.946;2022-09-09T10:05:16;100687.75;;;18.54;41.76
51468;BME280;37545;45.302;-122.946;2022-09-09T10:08:04;100682.50;;;18.54;41.50
51468;BME280;37545;45.302;-122.946;2022-09-09T10:10:42;100670.31;;;18.53;40.80
51468;BME280;37545;45.302;-122.946;2022-09-09T10:13:19;100679.00;;;18.55;41.13
51468;BME280;37545;45.302;-122.946;2022-09-09T10:15:59;100679.00;;;18.55;41.51
51468;BME280;37545;45.302;-122.946;2022-09-09T10:18:54;100677.28;;;18.54;41.71
51468;BME280;37545;45.302;-122.946;2022-09-09T10:21:39;100670.31;;;18.53;41.36
51468;BME280;37545;45.302;-122.946;2022-09-09T10:24:24;100670.28;;;18.50;41.59
51468;BME280;37545;45.302;-122.946;2022-09-09T10:27:01;100676.41;;;18.48;41.47
51468;BME280;37545;45.302;-122.946;2022-09-09T10:29:52;100676.41;;;18.48;41.28
51468;BME280;37545;45.302;-122.946;2022-09-09T10:32:38;100662.44;;;18.46;41.45
51468;BME280;37545;45.302;-122.946;2022-09-09T10:35:22;100662.47;;;18.44;41.58
51468;BME280;37545;45.302;-122.946;2022-09-09T10:38:09;100671.19;;;18.43;41.91
51468;BME280;37545;45.302;-122.946;2022-09-09T10:40:43;100675.56;;;18.42;41.96
51468;BME280;37545;45.302;-122.946;2022-09-09T10:43:26;100665.09;;;18.41;41.44
51468;BME280;37545;45.302;-122.946;2022-09-09T10:46:06;100677.31;;;18.39;41.60
51468;BME280;37545;45.302;-122.946;2022-09-09T10:48:52;100663.34;;;18.37;41.88
51468;BME280;37545;45.302;-122.946;2022-09-09T10:51:35;100665.13;;;18.35;42.14
51468;BME280;37545;45.302;-122.946;2022-09-09T10:57:03;100652.91;;;18.28;42.07
51468;BME280;37545;45.302;-122.946;2022-09-09T10:59:38;100657.31;;;18.24;42.32
51468;BME280;37545;45.302;-122.946;2022-09-09T11:02:14;100662.56;;;18.21;42.40
51468;BME280;37545;45.302;-122.946;2022-09-09T11:04:50;100661.69;;;18.19;42.40
51468;BME280;37545;45.302;-122.946;2022-09-09T11:07:28;100664.31;;;18.19;42.14
51468;BME280;37545;45.302;-122.946;2022-09-09T11:10:11;100659.97;;;18.16;42.64
51468;BME280;37545;45.302;-122.946;2022-09-09T11:12:45;100658.22;;;18.15;43.05
51468;BME280;37545;45.302;-122.946;2022-09-09T11:15:18;100654.72;;;18.13;42.48
51468;BME280;37545;45.302;-122.946;2022-09-09T11:17:50;100656.50;;;18.10;42.93
51468;BME280;37545;45.302;-122.946;2022-09-09T11:20:21;100643.41;;;18.08;42.96
51468;BME280;37545;45.302;-122.946;2022-09-09T11:22:55;100640.78;;;18.08;41.68
51468;BME280;37545;45.302;-122.946;2022-09-09T11:25:32;100647.75;;;18.12;42.10
51468;BME280;37545;45.302;-122.946;2022-09-09T11:28:29;100639.88;;;18.15;41.92
51468;BME280;37545;45.302;-122.946;2022-09-09T11:31:15;100639.03;;;18.16;41.79
51468;BME280;37545;45.302;-122.946;2022-09-09T11:34:16;100634.63;;;18.18;42.17
51468;BME280;37545;45.302;-122.946;2022-09-09T11:37:08;100628.50;;;18.23;42.27
51468;BME280;37545;45.302;-122.946;2022-09-09T11:40:16;100630.25;;;18.24;41.88
51468;BME280;37545;45.302;-122.946;2022-09-09T11:42:46;100625.88;;;18.23;41.75
51468;BME280;37545;45.302;-122.946;2022-09-09T11:45:24;100635.50;;;18.24;41.68
51468;BME280;37545;45.302;-122.946;2022-09-09T11:47:56;100632.88;;;18.22;42.01
51468;BME280;37545;45.302;-122.946;2022-09-09T11:50:33;100635.50;;;18.20;42.13
51468;BME280;37545;45.302;-122.946;2022-09-09T11:53:22;100624.16;;;18.17;42.51
51468;BME280;37545;45.302;-122.946;2022-09-09T11:56:09;100622.44;;;18.13;42.07
51468;BME280;37545;45.302;-122.946;2022-09-09T11:58:42;100619.84;;;18.08;41.98
51468;BME280;37545;45.302;-122.946;2022-09-09T12:01:38;100619.84;;;18.08;41.95
51468;BME280;37545;45.302;-122.946;2022-09-09T12:04:27;100623.31;;;18.07;42.07
51468;BME280;37545;45.302;-122.946;2022-09-09T12:07:00;100622.47;;;18.05;42.76
51468;BME280;37545;45.302;-122.946;2022-09-09T12:09:33;100630.31;;;18.02;43.01
51468;BME280;37545;45.302;-122.946;2022-09-09T12:12:26;100623.34;;;17.95;42.96
51468;BME280;37545;45.302;-122.946;2022-09-09T12:15:00;100622.53;;;17.91;42.77
51468;BME280;37545;45.302;-122.946;2022-09-09T12:17:30;100627.75;;;17.88;43.01
51468;BME280;37545;45.302;-122.946;2022-09-09T12:20:11;100622.53;;;17.85;43.37
51468;BME280;37545;45.302;-122.946;2022-09-09T12:22:50;100637.34;;;17.82;42.75
51468;BME280;37545;45.302;-122.946;2022-09-09T12:25:26;100626.88;;;17.78;42.58
51468;BME280;37545;45.302;-122.946;2022-09-09T12:28:08;100626.88;;;17.78;42.63
51468;BME280;37545;45.302;-122.946;2022-09-09T12:30:43;100626.00;;;17.76;43.14
51468;BME280;37545;45.302;-122.946;2022-09-09T12:33:18;100616.41;;;17.75;43.02
51468;BME280;37545;45.302;-122.946;2022-09-09T12:35:55;100622.50;;;17.74;43.28
51468;BME280;37545;45.302;-122.946;2022-09-09T12:38:31;100627.72;;;17.73;43.10
51468;BME280;37545;45.302;-122.946;2022-09-09T12:41:01;100619.91;;;17.71;42.74
51468;BME280;37545;45.302;-122.946;2022-09-09T12:43:31;100621.66;;;17.69;43.60
51468;BME280;37545;45.302;-122.946;2022-09-09T12:46:02;100619.88;;;17.68;43.32
51468;BME280;37545;45.302;-122.946;2022-09-09T12:48:34;100619.91;;;17.65;43.58
51468;BME280;37545;45.302;-122.946;2022-09-09T12:51:06;100618.16;;;17.61;43.37
51468;BME280;37545;45.302;-122.946;2022-09-09T12:53:45;100618.19;;;17.58;43.16
51468;BME280;37545;45.302;-122.946;2022-09-09T12:56:20;100615.56;;;17.55;43.65
51468;BME280;37545;45.302;-122.946;2022-09-09T12:58:52;100614.69;;;17.53;43.09